Time;durP1;ratioP1;P1;durP2;ratioP2;P2;SDS_P1;SDS_P2;PMS_P1;PMS_P2;Temp;Humidity;BMP_temperature;BMP_pressure;BME280_temperature;BME280_humidity;BME280_pressure;Samples;Min_cycle;Max_cycle;Signal;HPM_P1;HPM_P2
2021/07/21 00:00:36;;;;;;;11.38;4.80;;;19.00;91.30;;;;;;5074922;28;20029;-83
2021/07/21 00:03:02;;;;;;;7.30;4.55;;;19.00;91.00;;;;;;5074476;28;20024;-81
2021/07/21 00:05:28;;;;;;;10.35;4.60;;;19.00;91.10;;;;;;5075354;28;20028;-83
2021/07/21 00:07:55;;;;;;;10.63;4.60;;;19.00;90.80;;;;;;5076679;28;20052;-83
2021/07/21 00:10:23;;;;;;;9.68;4.57;;;19.00;90.60;;;;;;5100205;28;20019;-83
2021/07/21 00:15:37;;;;;;;10.50;4.68;;;18.90;90.80;;;;;;5077585;28;20098;-83
2021/07/21 00:20:54;;;;;;;8.50;5.05;;;18.80;91.00;;;;;;5082748;28;20633;-83
2021/07/21 00:23:20;;;;;;;9.85;4.80;;;18.80;91.00;;;;;;5091440;28;20050;-84
2021/07/21 00:25:47;;;;;;;9.02;4.93;;;18.80;91.00;;;;;;5094360;28;20103;-83
2021/07/21 00:28:13;;;;;;;9.25;4.88;;;18.80;91.30;;;;;;5090780;28;20020;-83
2021/07/21 00:30:40;;;;;;;10.45;4.60;;;18.70;91.00;;;;;;5093864;28;20027;-83
2021/07/21 00:33:05;;;;;;;7.65;4.80;;;18.70;91.10;;;;;;5091748;28;20024;-83
2021/07/21 00:35:31;;;;;;;8.88;5.00;;;18.70;91.30;;;;;;5092717;28;20581;-84
2021/07/21 00:37:57;;;;;;;11.80;4.72;;;18.50;91.40;;;;;;5093681;28;20035;-83
2021/07/21 00:40:22;;;;;;;9.38;4.75;;;18.40;91.70;;;;;;5108910;22;20162;-83
2021/07/21 00:42:48;;;;;;;10.73;4.72;;;18.40;91.90;;;;;;5091078;28;20364;-83
2021/07/21 00:45:17;;;;;;;9.93;5.07;;;18.40;91.90;;;;;;5110314;28;20495;-83
2021/07/21 00:47:42;;;;;;;16.27;4.80;;;18.40;91.90;;;;;;5091844;27;20028;-83
2021/07/21 00:50:10;;;;;;;10.40;4.72;;;18.30;91.90;;;;;;5130495;27;20098;-83
2021/07/21 00:52:37;;;;;;;10.35;5.00;;;18.30;92.10;;;;;;5095885;28;20495;-83
2021/07/21 00:55:08;;;;;;;7.65;4.50;;;18.20;92.00;;;;;;5075553;28;20043;-83
2021/07/21 00:57:35;;;;;;;11.10;4.75;;;18.20;92.20;;;;;;5110200;28;20445;-83
2021/07/21 01:00:01;;;;;;;9.60;4.55;;;18.20;92.20;;;;;;5091673;28;20463;-83
2021/07/21 01:02:26;;;;;;;9.77;4.85;;;18.10;92.30;;;;;;5102550;28;20094;-83
2021/07/21 01:04:53;;;;;;;8.20;4.38;;;18.00;92.40;;;;;;5083395;28;20433;-83
2021/07/21 01:07:20;;;;;;;10.00;5.10;;;18.00;92.70;;;;;;5089648;28;20038;-83
2021/07/21 01:09:46;;;;;;;8.98;4.68;;;18.00;92.80;;;;;;5090356;28;20027;-83
2021/07/21 01:12:16;;;;;;;9.60;4.70;;;18.00;93.10;;;;;;5087680;28;20020;-83
2021/07/21 01:15:00;;;;;;;8.65;5.10;;;18.00;93.40;;;;;;5086551;28;20024;-83
2021/07/21 01:17:33;;;;;;;10.30;5.15;;;18.00;93.00;;;;;;5100411;28;20023;-83
2021/07/21 01:20:19;;;;;;;12.00;4.82;;;17.90;93.20;;;;;;5101717;28;20032;-83
2021/07/21 01:22:50;;;;;;;9.45;4.25;;;17.80;93.40;;;;;;5078620;28;20027;-83
2021/07/21 01:25:18;;;;;;;;;;;17.80;93.50;;;;;;5088439;28;20051;-83
2021/07/21 01:27:56;;;;;;;9.05;4.78;;;17.70;93.50;;;;;;5089244;28;20359;-83
2021/07/21 01:30:28;;;;;;;9.77;4.75;;;17.70;93.70;;;;;;5107105;28;20076;-83
2021/07/21 01:33:07;;;;;;;9.27;5.32;;;17.70;93.80;;;;;;5108022;28;20019;-83
2021/07/21 01:35:50;;;;;;;8.75;4.50;;;17.70;94.20;;;;;;5109728;28;20024;-83
2021/07/21 01:38:23;;;;;;;10.98;4.90;;;17.70;94.20;;;;;;5091398;28;20024;-83
2021/07/21 01:40:54;;;;;;;10.77;5.10;;;17.60;94.30;;;;;;5088997;28;20024;-83
2021/07/21 01:43:25;;;;;;;10.90;5.13;;;17.60;94.30;;;;;;5071549;28;20166;-83
2021/07/21 01:45:53;;;;;;;10.43;4.80;;;17.50;94.60;;;;;;5074430;28;20380;-83
2021/07/21 01:48:22;;;;;;;8.23;4.75;;;17.60;94.60;;;;;;5090855;28;20102;-83
2021/07/21 01:50:49;;;;;;;11.85;5.38;;;17.60;94.70;;;;;;5110348;28;20092;-83
2021/07/21 01:53:16;;;;;;;11.18;5.22;;;17.60;94.60;;;;;;5095948;28;20028;-83
2021/07/21 01:55:43;;;;;;;11.50;5.18;;;17.70;94.60;;;;;;5098045;28;20059;-83
2021/07/21 01:58:10;;;;;;;13.05;5.00;;;17.60;94.70;;;;;;5091079;28;20020;-83
2021/07/21 02:00:37;;;;;;;10.40;5.40;;;17.50;94.70;;;;;;5090920;28;20059;-83
2021/07/21 02:03:04;;;;;;;10.15;5.25;;;17.40;95.00;;;;;;5090740;28;20016;-83
2021/07/21 02:05:30;;;;;;;8.88;4.85;;;17.50;95.20;;;;;;5093738;28;20036;-83
2021/07/21 02:07:57;;;;;;;9.55;5.18;;;17.50;95.20;;;;;;5094615;28;20023;-83
2021/07/21 02:10:25;;;;;;;11.15;5.45;;;17.60;95.20;;;;;;5091263;28;20102;-83
2021/07/21 02:13:04;;;;;;;7.72;4.65;;;17.60;95.20;;;;;;5094732;28;20066;-83
2021/07/21 02:15:30;;;;;;;9.73;5.35;;;17.60;95.60;;;;;;5113103;28;20390;-83
2021/07/21 02:17:56;;;;;;;11.27;4.82;;;17.60;95.50;;;;;;5090690;28;20024;-83
2021/07/21 02:20:24;;;;;;;9.63;5.15;;;17.70;95.90;;;;;;5092876;28;20452;-83
2021/07/21 02:22:50;;;;;;;8.68;4.93;;;17.70;95.90;;;;;;5091306;28;20020;-83
2021/07/21 02:25:16;;;;;;;9.10;5.25;;;17.70;95.70;;;;;;5084490;28;20085;-83
2021/07/21 02:27:43;;;;;;;10.93;5.63;;;17.60;95.90;;;;;;5094002;28;20485;-83
2021/07/21 02:30:10;;;;;;;10.35;5.28;;;17.70;95.70;;;;;;5112427;28;20232;-83
2021/07/21 02:32:41;;;;;;;8.65;4.85;;;17.60;95.60;;;;;;5113267;28;20062;-83
2021/07/21 02:35:07;;;;;;;9.20;4.85;;;17.60;95.80;;;;;;5115161;28;20023;-83
2021/07/21 02:37:33;;;;;;;11.63;5.50;;;17.60;95.90;;;;;;5098837;28;20035;-83
2021/07/21 02:39:59;;;;;;;10.60;5.50;;;17.60;95.90;;;;;;5075831;28;20119;-83
2021/07/21 02:42:24;;;;;;;9.93;5.30;;;17.60;96.00;;;;;;5093609;28;20024;-83
2021/07/21 02:44:52;;;;;;;10.02;5.13;;;17.60;96.30;;;;;;5074730;28;20080;-83
2021/07/21 02:47:19;;;;;;;10.07;5.22;;;17.50;96.30;;;;;;5092576;28;20028;-83
2021/07/21 02:49:46;;;;;;;9.32;5.40;;;17.60;96.50;;;;;;5073865;28;20586;-83
2021/07/21 02:52:27;;;;;;;13.98;5.28;;;17.60;97.10;;;;;;5073849;28;20020;-83
2021/07/21 02:54:55;;;;;;;9.77;4.93;;;17.50;96.50;;;;;;5084502;28;20039;-83
2021/07/21 02:57:32;;;;;;;9.50;5.30;;;17.50;96.70;;;;;;5094667;28;20027;-83
2021/07/21 03:00:05;;;;;;;11.73;5.05;;;17.50;97.10;;;;;;5093325;28;20034;-83
2021/07/21 03:02:34;;;;;;;13.65;5.47;;;17.40;97.20;;;;;;5089797;28;20159;-83
2021/07/21 03:05:01;;;;;;;11.80;5.15;;;17.30;97.20;;;;;;5074117;28;20169;-83
2021/07/21 03:07:28;;;;;;;9.70;5.65;;;17.30;97.20;;;;;;5073555;28;20500;-83
2021/07/21 03:09:55;;;;;;;10.82;5.22;;;17.30;97.20;;;;;;5073870;28;20036;-83
2021/07/21 03:12:24;;;;;;;10.43;5.70;;;17.20;97.60;;;;;;5073607;28;20523;-83
2021/07/21 03:14:52;;;;;;;11.15;5.72;;;17.20;97.70;;;;;;5092836;28;20465;-83
2021/07/21 03:17:18;;;;;;;10.32;5.45;;;17.20;97.70;;;;;;5089076;28;20705;-83
2021/07/21 03:19:50;;;;;;;15.05;6.05;;;17.10;97.70;;;;;;5090048;28;20031;-83
2021/07/21 03:22:22;;;;;;;11.10;5.70;;;17.10;97.80;;;;;;5090367;28;20055;-83
2021/07/21 03:24:49;;;;;;;12.02;5.97;;;17.10;98.10;;;;;;5104205;28;20055;-82
2021/07/21 03:27:15;;;;;;;10.25;5.57;;;17.10;97.80;;;;;;5085568;28;20062;-83
2021/07/21 03:29:42;;;;;;;11.40;5.88;;;17.20;97.90;;;;;;5090812;28;20099;-83
2021/07/21 03:32:07;;;;;;;11.50;5.78;;;17.20;98.00;;;;;;5073627;28;20031;-83
2021/07/21 03:34:36;;;;;;;10.65;5.53;;;17.20;98.60;;;;;;5091346;28;20047;-83
2021/07/21 03:37:03;;;;;;;10.30;5.70;;;17.20;98.40;;;;;;5084582;28;20034;-82
2021/07/21 03:39:29;;;;;;;11.48;5.45;;;17.10;98.50;;;;;;5093051;28;20062;-83
2021/07/21 03:41:55;;;;;;;12.52;5.70;;;17.00;98.70;;;;;;5093588;28;20090;-83
2021/07/21 03:44:23;;;;;;;11.38;5.60;;;16.90;98.90;;;;;;5078523;28;20050;-83
2021/07/21 03:46:50;;;;;;;11.73;5.65;;;17.00;99.10;;;;;;5073144;28;20051;-83
2021/07/21 03:49:18;;;;;;;11.00;5.65;;;17.00;99.00;;;;;;5072897;28;20115;-83
2021/07/21 03:51:45;;;;;;;10.82;6.20;;;17.00;99.10;;;;;;5090701;28;20024;-83
2021/07/21 03:54:12;;;;;;;10.23;5.70;;;16.90;99.00;;;;;;5073052;28;20042;-84
2021/07/21 03:56:41;;;;;;;9.60;5.75;;;16.90;99.10;;;;;;5111372;27;20027;-83
2021/07/21 03:59:07;;;;;;;12.98;6.38;;;16.90;99.20;;;;;;5109653;27;20103;-85
2021/07/21 04:01:34;;;;;;;12.38;5.72;;;16.90;99.10;;;;;;5103101;27;20040;-84
2021/07/21 04:04:03;;;;;;;11.73;6.63;;;16.90;98.90;;;;;;5123422;27;20081;-84
2021/07/21 04:06:32;;;;;;;10.27;6.05;;;16.80;98.90;;;;;;5099722;28;20031;-83
2021/07/21 04:09:06;;;;;;;10.65;6.03;;;16.90;99.50;;;;;;5110576;28;20024;-83
2021/07/21 04:11:34;;;;;;;11.25;5.53;;;16.90;99.60;;;;;;5095635;28;20024;-83
2021/07/21 04:14:02;;;;;;;12.43;6.05;;;16.90;99.60;;;;;;5117635;27;20019;-84
2021/07/21 04:16:31;;;;;;;10.55;6.00;;;16.90;99.60;;;;;;5090609;28;20434;-83
2021/07/21 04:18:57;;;;;;;13.32;6.75;;;16.90;99.60;;;;;;5108984;27;20177;-84
2021/07/21 04:21:23;;;;;;;11.95;6.40;;;16.80;99.70;;;;;;5122014;27;20617;-83
2021/07/21 04:23:50;;;;;;;9.98;5.60;;;16.90;99.90;;;;;;5127266;27;20059;-83
2021/07/21 04:26:17;;;;;;;12.23;6.63;;;16.90;99.90;;;;;;5101793;28;20093;-83
2021/07/21 04:28:43;;;;;;;14.13;5.75;;;16.90;99.90;;;;;;5086166;28;20034;-83
2021/07/21 04:31:09;;;;;;;10.15;5.75;;;16.90;99.90;;;;;;5091547;28;20027;-84
2021/07/21 04:33:35;;;;;;;9.63;5.75;;;16.80;99.90;;;;;;5092351;28;20118;-84
2021/07/21 04:36:02;;;;;;;14.43;6.30;;;16.90;99.90;;;;;;5090725;27;20436;-84
2021/07/21 04:38:28;;;;;;;9.98;6.10;;;17.00;99.90;;;;;;5109607;28;20161;-84
2021/07/21 04:40:55;;;;;;;10.98;5.88;;;17.00;99.90;;;;;;5109948;27;20026;-84
2021/07/21 04:43:21;;;;;;;10.10;5.75;;;17.00;99.90;;;;;;5105037;28;20462;-84
2021/07/21 04:45:50;;;;;;;11.52;6.03;;;17.00;99.90;;;;;;5095373;28;20137;-84
2021/07/21 04:48:16;;;;;;;12.00;6.38;;;17.00;99.90;;;;;;5082341;28;20019;-84
2021/07/21 04:50:43;;;;;;;8.80;5.57;;;17.10;99.90;;;;;;5104374;28;20491;-84
2021/07/21 04:53:15;;;;;;;12.93;6.55;;;17.20;99.90;;;;;;5096460;28;20039;-83
2021/07/21 04:55:46;;;;;;;12.77;6.90;;;17.30;99.90;;;;;;5105965;27;20411;-84
2021/07/21 04:58:12;;;;;;;11.15;6.03;;;17.40;99.80;;;;;;5088488;28;21331;-84
2021/07/21 05:00:39;;;;;;;12.77;6.07;;;17.30;99.80;;;;;;5091124;27;20027;-84
2021/07/21 05:03:06;;;;;;;10.75;5.97;;;17.50;99.90;;;;;;5104580;28;20030;-84
2021/07/21 05:05:38;;;;;;;11.20;6.15;;;17.50;99.60;;;;;;5091697;28;20115;-84
2021/07/21 05:08:05;;;;;;;11.57;6.40;;;17.50;99.80;;;;;;5086404;28;20043;-83
2021/07/21 05:10:31;;;;;;;10.00;5.82;;;17.60;99.60;;;;;;5085618;28;20508;-84
2021/07/21 05:12:57;;;;;;;17.95;6.93;;;17.70;99.70;;;;;;5081100;28;20111;-84
2021/07/21 05:15:23;;;;;;;14.40;6.47;;;17.70;99.70;;;;;;5101101;28;20032;-84
2021/07/21 05:17:49;;;;;;;12.82;6.57;;;17.70;99.30;;;;;;5094093;28;20031;-84
2021/07/21 05:20:15;;;;;;;11.45;6.40;;;17.80;99.40;;;;;;5097159;28;20047;-84
2021/07/21 05:22:45;;;;;;;10.63;6.07;;;17.70;99.10;;;;;;5083495;28;20020;-83
2021/07/21 05:25:13;;;;;;;12.95;5.72;;;17.80;99.30;;;;;;5104826;28;20016;-84
2021/07/21 05:27:39;;;;;;;12.10;6.72;;;17.70;99.50;;;;;;5083250;28;20028;-84
2021/07/21 05:30:06;;;;;;;11.55;6.07;;;17.80;99.40;;;;;;5091557;28;20030;-83
2021/07/21 05:32:31;;;;;;;11.20;6.57;;;17.80;99.20;;;;;;5083504;28;20024;-82
2021/07/21 05:34:57;;;;;;;12.35;6.88;;;17.90;99.00;;;;;;5085514;28;20077;-83
2021/07/21 05:37:23;;;;;;;12.05;6.53;;;17.90;99.20;;;;;;5098766;28;20019;-82
2021/07/21 05:39:48;;;;;;;10.68;6.30;;;17.90;99.00;;;;;;5104162;28;20370;-82
2021/07/21 05:42:14;;;;;;;12.60;6.45;;;18.00;98.90;;;;;;5106516;27;20063;-82
2021/07/21 05:44:40;;;;;;;11.55;7.18;;;18.00;99.00;;;;;;5095952;28;20027;-83
2021/07/21 05:47:06;;;;;;;13.95;6.72;;;18.10;99.00;;;;;;5123316;27;20092;-83
2021/07/21 05:49:31;;;;;;;10.38;6.40;;;18.10;98.90;;;;;;5084344;27;20066;-82
2021/07/21 05:51:57;;;;;;;11.35;6.53;;;18.20;98.90;;;;;;5094499;27;20020;-83
2021/07/21 05:54:23;;;;;;;12.23;6.45;;;18.20;98.90;;;;;;5098059;27;20114;-83
2021/07/21 05:56:49;;;;;;;11.25;6.38;;;18.20;98.70;;;;;;5091390;27;20023;-83
2021/07/21 05:59:15;;;;;;;13.95;7.20;;;18.00;99.20;;;;;;5106060;28;20099;-83
2021/07/21 06:01:40;;;;;;;12.48;6.57;;;18.00;99.00;;;;;;5112343;27;20157;-83
2021/07/21 06:04:06;;;;;;;11.60;6.72;;;18.10;99.30;;;;;;5111616;27;20012;-83
2021/07/21 06:06:34;;;;;;;12.38;7.28;;;18.20;99.10;;;;;;5113862;27;20080;-83
2021/07/21 06:09:00;;;;;;;14.23;7.18;;;18.30;99.20;;;;;;5122293;27;20023;-82
2021/07/21 06:11:25;;;;;;;11.80;7.18;;;18.40;98.90;;;;;;5119755;27;20027;-82
2021/07/21 06:13:51;;;;;;;11.68;7.13;;;18.40;99.10;;;;;;5100059;27;20020;-82
2021/07/21 06:16:17;;;;;;;11.27;6.65;;;18.50;98.80;;;;;;5099199;28;20020;-82
2021/07/21 06:18:44;;;;;;;14.10;6.90;;;18.60;98.50;;;;;;5099872;28;20035;-82
2021/07/21 06:21:10;;;;;;;14.77;6.68;;;18.60;98.80;;;;;;5113775;27;20031;-82
2021/07/21 06:23:36;;;;;;;15.38;7.03;;;18.70;98.80;;;;;;5099503;27;20372;-84
2021/07/21 06:26:01;;;;;;;14.05;6.57;;;18.70;98.60;;;;;;5104332;28;20019;-83
2021/07/21 06:28:27;;;;;;;16.00;6.90;;;18.90;98.60;;;;;;5098934;28;20055;-82
2021/07/21 06:30:53;;;;;;;12.13;7.15;;;19.00;98.20;;;;;;5117435;28;20027;-82
2021/07/21 06:33:18;;;;;;;13.90;7.00;;;19.10;98.20;;;;;;5090542;28;20517;-82
2021/07/21 06:35:46;;;;;;;11.50;6.63;;;19.10;98.60;;;;;;5074956;28;20078;-82
2021/07/21 06:38:12;;;;;;;13.88;6.97;;;19.00;99.10;;;;;;5088527;28;20032;-82
2021/07/21 06:40:38;;;;;;;12.90;7.03;;;19.10;98.80;;;;;;5073602;28;20035;-82
2021/07/21 06:43:03;;;;;;;15.52;7.35;;;19.20;98.70;;;;;;5092869;28;20384;-82
2021/07/21 06:45:29;;;;;;;13.25;6.32;;;19.20;98.30;;;;;;5076880;28;20039;-82
2021/07/21 06:47:55;;;;;;;12.38;6.85;;;19.30;98.40;;;;;;5074094;28;20028;-82
2021/07/21 06:50:20;;;;;;;12.30;6.63;;;19.30;98.70;;;;;;5092018;28;20028;-81
2021/07/21 06:52:46;;;;;;;11.25;7.10;;;19.30;98.40;;;;;;5092924;28;20054;-82
2021/07/21 06:55:12;;;;;;;12.05;6.60;;;19.40;98.60;;;;;;5078960;28;20375;-82
2021/07/21 06:57:38;;;;;;;13.20;6.80;;;19.40;98.40;;;;;;5086680;28;20139;-83
2021/07/21 07:00:05;;;;;;;11.45;6.38;;;19.50;98.20;;;;;;5074190;28;20504;-83
2021/07/21 07:02:31;;;;;;;13.20;7.47;;;19.60;98.10;;;;;;5074326;28;20020;-84
2021/07/21 07:04:56;;;;;;;13.25;6.75;;;19.80;97.70;;;;;;5074093;28;20042;-83
2021/07/21 07:07:22;;;;;;;11.65;7.15;;;19.90;97.60;;;;;;5090912;28;20039;-83
2021/07/21 07:09:49;;;;;;;13.88;6.75;;;19.80;96.90;;;;;;5092073;28;20519;-83
2021/07/21 07:12:15;;;;;;;14.73;6.53;;;19.90;96.90;;;;;;5088349;28;20517;-83
2021/07/21 07:14:41;;;;;;;13.18;6.70;;;20.00;97.00;;;;;;5094542;28;20028;-83
2021/07/21 07:17:07;;;;;;;11.10;6.50;;;20.10;96.90;;;;;;5097025;28;20077;-83
2021/07/21 07:19:32;;;;;;;11.95;5.90;;;20.30;96.70;;;;;;5091378;28;20028;-83
2021/07/21 07:21:59;;;;;;;11.70;6.15;;;20.40;96.60;;;;;;5074029;28;20093;-84
2021/07/21 07:24:26;;;;;;;12.45;7.07;;;20.50;96.50;;;;;;5081499;28;20031;-83
2021/07/21 07:26:51;;;;;;;11.38;6.97;;;20.60;95.90;;;;;;5073679;28;20030;-83
2021/07/21 07:29:17;;;;;;;11.93;6.50;;;20.70;95.70;;;;;;5090559;28;20118;-84
2021/07/21 07:31:43;;;;;;;11.18;6.72;;;20.70;95.70;;;;;;5091154;28;20439;-83
2021/07/21 07:34:08;;;;;;;10.80;6.40;;;20.60;95.80;;;;;;5074790;28;20035;-84
2021/07/21 07:36:34;;;;;;;12.15;6.43;;;20.70;95.80;;;;;;5075225;28;20031;-83
2021/07/21 07:39:00;;;;;;;16.95;6.90;;;20.80;96.10;;;;;;5095101;28;20111;-84
2021/07/21 07:41:26;;;;;;;11.70;7.05;;;20.90;96.10;;;;;;5112077;28;20448;-83
2021/07/21 07:43:52;;;;;;;14.57;7.00;;;20.90;96.60;;;;;;5113075;28;20068;-83
2021/07/21 07:46:19;;;;;;;12.15;6.93;;;21.00;96.20;;;;;;5094136;28;20020;-84
2021/07/21 07:48:45;;;;;;;13.13;6.80;;;21.10;95.80;;;;;;5086854;28;20016;-84
2021/07/21 07:51:11;;;;;;;11.68;6.68;;;21.30;95.60;;;;;;5073416;28;20511;-84
2021/07/21 07:53:36;;;;;;;11.68;6.65;;;21.30;95.50;;;;;;5091828;28;20035;-84
2021/07/21 07:56:03;;;;;;;10.15;6.35;;;21.40;95.10;;;;;;5103995;28;20055;-84
2021/07/21 07:58:28;;;;;;;12.52;6.72;;;21.30;94.90;;;;;;5092831;28;20028;-84
2021/07/21 08:00:54;;;;;;;11.63;6.55;;;21.30;95.00;;;;;;5111808;28;20027;-84
2021/07/21 08:03:20;;;;;;;11.55;6.20;;;21.30;95.20;;;;;;5111115;28;20057;-84
2021/07/21 08:05:46;;;;;;;14.18;7.28;;;21.40;95.50;;;;;;5075029;28;20455;-84
2021/07/21 08:08:11;;;;;;;11.50;6.80;;;21.40;94.80;;;;;;5091573;28;20042;-84
2021/07/21 08:10:37;;;;;;;11.57;6.70;;;21.60;94.70;;;;;;5103250;28;20064;-84
2021/07/21 08:13:03;;;;;;;12.57;6.70;;;21.60;94.50;;;;;;5091411;28;20072;-83
2021/07/21 08:15:29;;;;;;;13.32;6.82;;;21.70;94.80;;;;;;5091532;28;20020;-84
2021/07/21 08:17:54;;;;;;;10.75;6.35;;;21.90;94.60;;;;;;5083962;28;20019;-84
2021/07/21 08:20:21;;;;;;;12.93;6.70;;;22.00;94.30;;;;;;5092878;28;20479;-83
2021/07/21 08:22:46;;;;;;;10.73;6.20;;;22.10;94.20;;;;;;5102714;28;20047;-84
2021/07/21 08:25:16;;;;;;;11.15;6.47;;;22.10;93.90;;;;;;5101927;28;20399;-84
2021/07/21 08:27:43;;;;;;;12.68;6.78;;;22.20;93.90;;;;;;5092710;28;20092;-84
2021/07/21 08:30:13;;;;;;;12.98;6.85;;;22.20;93.50;;;;;;5111143;28;20020;-84
2021/07/21 08:32:44;;;;;;;10.00;6.53;;;22.30;93.70;;;;;;5103113;28;20039;-84
2021/07/21 08:35:12;;;;;;;11.55;7.05;;;22.40;93.60;;;;;;5093115;28;20106;-84
2021/07/21 08:37:37;;;;;;;12.70;6.28;;;22.40;93.20;;;;;;5090014;28;20124;-84
2021/07/21 08:40:06;;;;;;;9.82;5.90;;;22.50;93.40;;;;;;5084900;28;20118;-85
2021/07/21 08:42:33;;;;;;;10.32;5.97;;;22.60;92.30;;;;;;5089526;28;20032;-83
2021/07/21 08:44:59;;;;;;;11.95;6.45;;;22.70;92.80;;;;;;5090873;28;20034;-84
2021/07/21 08:47:25;;;;;;;12.30;6.72;;;22.80;93.00;;;;;;5088650;28;20023;-84
2021/07/21 08:49:50;;;;;;;10.88;5.80;;;22.90;93.20;;;;;;5090204;28;20661;-84
2021/07/21 08:52:17;;;;;;;13.20;6.72;;;23.10;92.90;;;;;;5072401;28;20361;-84
2021/07/21 08:54:48;;;;;;;10.55;6.25;;;23.10;92.70;;;;;;5072114;28;20035;-85
2021/07/21 08:57:15;;;;;;;14.43;6.25;;;23.10;92.30;;;;;;5081049;28;20031;-84
2021/07/21 08:59:45;;;;;;;11.63;6.13;;;23.20;92.40;;;;;;5091902;28;20027;-84
2021/07/21 09:02:12;;;;;;;11.57;6.78;;;23.30;92.60;;;;;;5092077;28;20031;-84
2021/07/21 09:04:38;;;;;;;10.15;5.88;;;23.40;92.20;;;;;;5110055;28;20028;-84
2021/07/21 09:07:06;;;;;;;9.82;6.43;;;23.50;92.10;;;;;;5109974;28;20026;-84
2021/07/21 09:09:32;;;;;;;11.23;7.03;;;23.50;91.80;;;;;;5091260;28;20027;-84
2021/07/21 09:11:58;;;;;;;11.45;6.15;;;23.70;91.40;;;;;;5110501;28;20112;-84
2021/07/21 09:14:25;;;;;;;12.10;6.50;;;23.80;91.30;;;;;;5087483;28;20361;-84
2021/07/21 09:17:08;;;;;;;11.77;6.22;;;23.90;91.60;;;;;;5083147;28;20043;-84
2021/07/21 09:19:37;;;;;;;11.23;6.07;;;24.10;91.30;;;;;;5090349;28;20100;-84
2021/07/21 09:22:16;;;;;;;13.40;6.55;;;24.10;91.10;;;;;;5088511;28;20018;-84
2021/07/21 09:24:44;;;;;;;12.13;6.32;;;24.20;91.30;;;;;;5090931;28;20012;-85
2021/07/21 09:27:10;;;;;;;11.15;6.15;;;24.20;90.30;;;;;;5108601;28;20034;-84
2021/07/21 09:29:37;;;;;;;12.45;6.30;;;24.30;90.30;;;;;;5089725;28;20016;-85
2021/07/21 09:32:03;;;;;;;10.95;6.38;;;24.30;90.20;;;;;;5110293;28;20023;-84
2021/07/21 09:34:29;;;;;;;14.85;6.68;;;24.30;90.50;;;;;;5110461;28;20187;-84
2021/07/21 09:37:02;;;;;;;10.93;6.35;;;24.30;90.50;;;;;;5092486;28;20062;-84
2021/07/21 09:39:33;;;;;;;13.15;6.30;;;24.40;90.30;;;;;;5089344;28;20028;-84
2021/07/21 09:41:59;;;;;;;;;;;24.20;89.30;;;;;;5089349;28;20113;-85
2021/07/21 09:44:51;;;;;;;9.75;5.88;;;24.20;90.10;;;;;;5071716;28;20427;-84
2021/07/21 09:47:20;;;;;;;10.73;5.40;;;24.50;90.00;;;;;;5067911;28;20050;-84
2021/07/21 09:49:46;;;;;;;10.10;5.82;;;24.60;89.20;;;;;;5073685;28;20024;-84
2021/07/21 09:52:13;;;;;;;10.43;5.90;;;24.70;89.20;;;;;;5091534;28;20089;-84
2021/07/21 09:54:39;;;;;;;15.80;7.50;;;24.90;88.90;;;;;;5109698;28;20051;-84
2021/07/21 09:57:12;;;;;;;15.38;6.03;;;25.10;88.30;;;;;;5100720;28;20561;-84
2021/07/21 09:59:38;;;;;;;12.07;5.93;;;25.20;87.70;;;;;;5091189;28;20059;-85
2021/07/21 10:02:15;;;;;;;14.25;6.63;;;25.20;86.00;;;;;;5091482;28;20036;-84
2021/07/21 10:04:43;;;;;;;8.77;5.13;;;25.30;86.60;;;;;;5099093;28;20466;-84
2021/07/21 10:07:44;;;;;;;11.25;6.22;;;25.40;87.00;;;;;;5071526;28;20052;-85
2021/07/21 10:10:16;;;;;;;11.10;6.13;;;25.20;86.20;;;;;;5088910;28;20031;-85
2021/07/21 10:12:43;;;;;;;9.38;5.90;;;25.40;85.40;;;;;;5075777;28;20016;-84
2021/07/21 10:15:09;;;;;;;10.75;6.03;;;25.70;85.50;;;;;;5099200;28;20031;-84
2021/07/21 10:17:35;;;;;;;11.48;6.32;;;25.70;84.20;;;;;;5120991;28;20027;-84
2021/07/21 10:20:00;;;;;;;11.32;5.68;;;25.80;83.90;;;;;;5130152;28;20033;-85
2021/07/21 10:22:26;;;;;;;13.07;6.22;;;25.90;84.70;;;;;;5102463;28;20030;-84
2021/07/21 10:24:52;;;;;;;11.25;6.47;;;26.20;82.90;;;;;;5090632;28;20024;-84
2021/07/21 10:27:19;;;;;;;10.90;6.85;;;26.30;83.20;;;;;;5095220;28;20016;-85
2021/07/21 10:29:45;;;;;;;13.00;6.63;;;26.40;82.50;;;;;;5095123;28;20015;-84
2021/07/21 10:32:14;;;;;;;10.35;5.90;;;26.20;81.50;;;;;;5091289;28;20499;-85
2021/07/21 10:34:44;;;;;;;11.07;5.80;;;26.20;81.10;;;;;;5091920;28;20063;-85
2021/07/21 10:37:10;;;;;;;9.35;6.15;;;26.40;81.30;;;;;;5093300;28;20048;-84
2021/07/21 10:39:37;;;;;;;9.35;5.50;;;26.50;80.40;;;;;;5082451;28;20027;-85
2021/07/21 10:42:11;;;;;;;8.73;5.75;;;26.50;79.70;;;;;;5075113;28;20077;-85
2021/07/21 10:44:37;;;;;;;10.60;6.03;;;26.30;78.00;;;;;;5093145;28;20066;-85
2021/07/21 10:47:31;;;;;;;10.07;5.80;;;26.30;79.60;;;;;;5074619;28;20217;-85
2021/07/21 10:50:00;;;;;;;10.70;5.90;;;26.60;80.10;;;;;;5092779;28;20059;-84
2021/07/21 10:55:30;;;;;;;13.00;6.18;;;26.80;79.20;;;;;;5096409;28;20487;-85
2021/07/21 11:00:55;;;;;;;11.02;5.60;;;27.00;79.20;;;;;;5112623;28;20426;-85
2021/07/21 11:03:31;;;;;;;9.82;5.55;;;27.30;78.10;;;;;;5094620;28;20016;-84
2021/07/21 11:05:57;;;;;;;9.90;6.40;;;27.60;78.80;;;;;;5074396;28;20020;-84
2021/07/21 11:08:24;;;;;;;10.10;6.15;;;27.80;78.90;;;;;;5090699;28;20024;-84
2021/07/21 11:10:52;;;;;;;10.95;6.35;;;27.80;77.20;;;;;;5074298;28;20020;-84
2021/07/21 11:13:39;;;;;;;9.38;5.93;;;27.70;77.30;;;;;;5093061;28;20361;-84
2021/07/21 11:16:06;;;;;;;9.27;5.60;;;27.70;78.60;;;;;;5096342;28;20070;-84
2021/07/21 11:18:34;;;;;;;11.13;6.53;;;27.90;78.20;;;;;;5114523;28;20024;-84
2021/07/21 11:21:03;;;;;;;8.93;5.80;;;28.10;77.00;;;;;;5095183;28;20071;-84
2021/07/21 11:23:40;;;;;;;10.88;6.55;;;28.40;76.00;;;;;;5096542;28;20032;-85
2021/07/21 11:26:31;;;;;;;12.18;7.03;;;28.40;75.40;;;;;;5096339;28;20020;-84
2021/07/21 11:28:58;;;;;;;11.43;6.47;;;28.10;74.70;;;;;;5087763;27;20012;-84
2021/07/21 11:31:49;;;;;;;10.02;6.82;;;28.30;73.20;;;;;;5116253;27;20034;-85
2021/07/21 11:34:28;;;;;;;9.73;6.53;;;28.50;74.70;;;;;;5098389;28;20027;-84
2021/07/21 11:36:56;;;;;;;11.63;6.18;;;28.60;74.90;;;;;;5082413;28;20028;-84
2021/07/21 11:39:50;;;;;;;10.43;5.55;;;28.70;75.10;;;;;;5088191;28;20046;-85
2021/07/21 11:42:40;;;;;;;11.55;6.97;;;28.80;75.00;;;;;;5111566;28;20059;-85
2021/07/21 11:45:06;;;;;;;10.20;6.30;;;28.90;74.40;;;;;;5116107;28;20092;-84
2021/07/21 11:47:43;;;;;;;11.15;6.25;;;28.50;73.90;;;;;;5098594;28;20515;-84
2021/07/21 11:50:11;;;;;;;10.88;6.78;;;28.40;74.30;;;;;;5094088;28;20044;-85
2021/07/21 11:52:38;;;;;;;10.65;6.80;;;28.50;73.90;;;;;;5120234;27;20047;-85
2021/07/21 11:55:04;;;;;;;11.77;6.63;;;28.60;73.50;;;;;;5099942;28;20070;-85
2021/07/21 11:57:30;;;;;;;11.13;6.85;;;28.40;75.00;;;;;;5109721;28;20031;-84
2021/07/21 11:59:58;;;;;;;12.00;7.05;;;28.80;75.80;;;;;;5097807;27;20027;-85
2021/07/21 12:02:27;;;;;;;10.50;6.70;;;29.00;72.60;;;;;;5096349;28;20027;-84
2021/07/21 12:04:58;;;;;;;9.68;7.10;;;29.00;72.20;;;;;;5121158;27;20514;-85
2021/07/21 12:07:32;;;;;;;10.32;6.38;;;29.00;73.20;;;;;;5118002;27;20075;-84
2021/07/21 12:09:57;;;;;;;12.70;6.50;;;29.20;73.50;;;;;;5117665;27;20023;-85
2021/07/21 12:12:25;;;;;;;12.63;6.97;;;29.30;72.50;;;;;;5107706;28;20098;-84
2021/07/21 12:14:56;;;;;;;10.23;6.70;;;28.80;72.80;;;;;;5091793;28;20330;-85
2021/07/21 12:17:26;;;;;;;10.07;6.70;;;29.00;71.60;;;;;;5113345;27;20034;-84
2021/07/21 12:19:56;;;;;;;11.25;6.95;;;29.40;71.90;;;;;;5113314;28;20055;-85
2021/07/21 12:22:23;;;;;;;11.05;7.05;;;29.60;71.60;;;;;;5094132;28;20070;-84
2021/07/21 12:24:50;;;;;;;13.50;6.90;;;29.60;71.40;;;;;;5095772;28;20455;-84
2021/07/21 12:27:43;;;;;;;13.55;7.30;;;29.60;70.20;;;;;;5095934;28;20109;-84
2021/07/21 12:30:13;;;;;;;10.32;6.53;;;30.00;70.50;;;;;;5076897;28;20082;-85
2021/07/21 12:32:39;;;;;;;9.23;6.37;;;29.80;71.00;;;;;;5096252;28;20051;-84
2021/07/21 12:35:07;;;;;;;9.93;6.50;;;30.00;70.60;;;;;;5094900;28;20273;-84
2021/07/21 12:37:38;;;;;;;10.60;6.50;;;30.30;69.10;;;;;;5076532;28;20036;-84
2021/07/21 12:40:10;;;;;;;11.10;6.65;;;29.90;70.90;;;;;;5090250;28;20085;-85
2021/07/21 12:42:36;;;;;;;10.85;6.70;;;30.30;69.90;;;;;;5091105;28;20024;-84
2021/07/21 12:45:11;;;;;;;9.02;6.40;;;30.20;70.10;;;;;;5073692;28;20400;-84
2021/07/21 12:47:39;;;;;;;12.95;7.40;;;30.50;71.00;;;;;;5090505;28;20488;-84
2021/07/21 12:50:20;;;;;;;9.98;6.55;;;30.40;68.90;;;;;;5090615;28;20107;-84
2021/07/21 12:52:48;;;;;;;;;;;29.80;69.20;;;;;;5072973;28;20027;-85
2021/07/21 12:55:19;;;;;;;13.00;6.80;;;29.30;69.50;;;;;;5077622;28;19907;-84
2021/07/21 12:57:50;;;;;;;10.93;6.60;;;29.10;71.20;;;;;;5088940;28;20035;-85